Hauptseite
METAR-TAF:

METAR-TAF

Flughäfen :

Pago Pago, Kleinere amerikanische Überseeinseln

Pago Pago International Airport

Breite: 14-20S, Länge: 170-43W, Höhe: 3 m

Beobachtung

Neuester Wetterbericht von vor 46 Minuten, um 01:51 UTC
Wind 14 kt aus Ost
Temperatur 30°C
Luftfeuchtigkeit 84%
Luftdruck 1012 hPa
Sichtweite: 19.3 km
Aufgelockert bewölkt in der Höhe von 2200 ft

METAR: NSTU 280151Z 09014KT 12SM SCT022 30/27 A2988 RMK SLP120 T03010272

Zeit: 15:37 (02:37 UTC)

Prognose

Neuester Wetterbericht von vor 2 Stunden und 54 Minuten, um 23:43 UTC
Gültige Prognose vom 28 um 00 UTC bis 28 um 24 UTC
Wind 12 kt aus Ost/Südost
Sichtweite: 10 km
Aufgelockert bewölkt in der Höhe von 1500 ft
Aufgelockert bewölkt in der Höhe von 4000 ft
Durchbrochene Bewölkung in der Höhe von 10000 ft
Schauer in der Nähe

TAF: NSTU 272343Z 2800/2824 11012KT P6SM VCSH SCT015 SCT040 BKN100

Wetterbeobachtungen und Prognosen von mehr als 4000 Flughäfen (METAR und TAF Bericht).

Die verfügbaren Stationen werden durch gelbe und rote Markierungen auf der Karte dargestellt.

Führen Sie die Maus auf sie, um den Namen der Station zu sehen.

Darauf klicken, um die Beobachtung von Wetterbeobachtungen und Prognosen zu sehen.

Um die Karte zu ändern : klicken Sie auf den grünen Tasten mit einem schwarzen Kreuz Zum Vergrößern, auf den grünen Button mit einem Gedankenstrich zu verkleinern, oder auf die grünen Pfeile für benachbarte Karten.


METAR-TAF: